Impacts METAR Board
IDs:

KSAN - San Diego Intl Arpt, CA, US

Updated at: 0600 UTC 23 Oct 2018
Potential Impact None Slight Moderate High
Time 22/18Z 22/19Z 22/20Z 22/21Z 22/22Z 22/23Z 23/00Z 23/01Z 23/02Z 23/03Z 23/04Z 23/05Z 23/06Z
Temp67 67 68 68 67 66 65 65 64 63 63 63 63
Dewpt56 56 56 57 57 57 57 57 58 58 58 58 58
Altim29.94 29.92 29.89 29.89 29.88 29.89 29.88 29.88 29.90 29.90 29.91 29.91 29.90
VIS10 10 10 10 10 10 10 10 10 10 10 10 10
CIG-- -- -- 250 250 250 240 250 250 250 250 210 200
CoverFEWSCTSCTBKNBKNBKNBKNBKNBKNBKNBKNOVCBKN
FltCatVFRVFRVFRVFRVFRVFRVFRVFRVFRVFRVFRVFRVFR
WX--------------------------
WDir030032030028002903003003203400350
WSpd4 8 9 9 7 6 5 5 4 4 3 0 3
WGst-- -- -- -- -- -- -- -- -- -- -- -- --
Raw hourly METARs
KSAN 221751Z VRB04KT 10SM FEW021 19/13 A2994 RMK AO2 SLP138 T01940133 10194 20172 50003
KSAN 221851Z 30008KT 10SM FEW021 FEW200 SCT250 19/13 A2992 RMK AO2 SLP133 T01940133
KSAN 221951Z 32009KT 10SM FEW021 FEW200 SCT250 20/13 A2989 RMK AO2 SLP122 T02000133
KSAN 222051Z 30009KT 10SM FEW200 BKN250 20/14 A2989 RMK AO2 SLP121 T02000139 56017
KSAN 222151Z 28007KT 10SM FEW021 FEW200 BKN250 19/14 A2988 RMK AO2 SLP119 T01940139
KSAN 222251Z VRB06KT 10SM FEW020 FEW200 BKN250 19/14 A2989 RMK AO2 SLP121 T01890139
KSAN 222351Z 29005KT 10SM FEW019 FEW200 BKN240 18/14 A2988 RMK AO2 SLP119 T01830139 10206 20183 58002
KSAN 230051Z 30005KT 10SM FEW019 SCT220 BKN250 18/14 A2988 RMK AO2 SLP118 T01830139
KSAN 230151Z 30004KT 10SM FEW019 SCT220 BKN250 18/14 A2990 RMK AO2 SLP123 T01780144
KSAN 230251Z 32004KT 10SM FEW019 SCT220 BKN250 17/14 A2990 RMK AO2 SLP125 T01720144 53006
KSAN 230351Z 34003KT 10SM FEW019 SCT220 BKN250 17/14 A2991 RMK AO2 SLP127 T01720144
KSAN 230451Z 00000KT 10SM FEW017 OVC210 17/14 A2991 RMK AO2 SLP128 T01720144
KSAN 230551Z 35003KT 10SM FEW015 BKN200 17/14 A2990 RMK AO2 SLP124 T01720144 10183 20172 58002



Page loaded:  06:57 UTC  |   11:57 PM Pacific  |   12:57 AM Mountain  |   01:57 AM Central  |   02:57 AM Eastern

 

ADVISORIES

FORECASTS

FORECASTS

OBSERVATIONS

USER TOOLS

ABOUT US